Time;durP1;ratioP1;P1;durP2;ratioP2;P2;SDS_P1;SDS_P2;PMS_P1;PMS_P2;Temp;Humidity;BMP_temperature;BMP_pressure;BME280_temperature;BME280_humidity;BME280_pressure;Samples;Min_cycle;Max_cycle;Signal;HPM_P1;HPM_P2
2021/12/14 00:00:04;;;;;;;28.92;21.17;;;;;;;;;;6211236;23;20465;-86
2021/12/14 00:02:30;;;;;;;27.63;20.77;;;;;;;;;;6186078;23;20096;-85
2021/12/14 00:05:01;;;;;;;26.27;20.85;;;;;;;;;;6210921;23;20091;-86
2021/12/14 00:07:27;;;;;;;29.63;20.45;;;;;;;;;;6210819;23;20346;-85
2021/12/14 00:10:02;;;;;;;25.98;19.50;;;;;;;;;;6211248;23;20024;-86
2021/12/14 00:12:55;;;;;;;27.77;19.25;;;;;;;;;;6211208;23;20012;-85
2021/12/14 00:15:21;;;;;;;27.70;20.40;;;;;;;;;;6211083;23;20027;-85
2021/12/14 00:17:49;;;;;;;26.83;18.92;;;;;;;;;;6186171;23;20012;-85
2021/12/14 00:20:21;;;;;;;26.00;19.30;;;;;;;;;;6211469;23;20017;-86
2021/12/14 00:25:19;;;;;;;25.98;19.58;;;;;;;;;;6210980;23;20082;-85
2021/12/14 00:27:45;;;;;;;26.42;18.90;;;;;;;;;;6211058;23;20027;-86
2021/12/14 00:30:11;;;;;;;25.30;18.38;;;;;;;;;;6185450;23;20009;-85
2021/12/14 00:32:38;;;;;;;25.15;18.95;;;;;;;;;;6210880;23;20017;-86
2021/12/14 00:35:10;;;;;;;24.38;18.10;;;;;;;;;;6211293;23;20017;-85
2021/12/14 00:37:37;;;;;;;26.95;17.48;;;;;;;;;;6210784;23;20016;-86
2021/12/14 00:40:10;;;;;;;24.23;17.42;;;;;;;;;;6210235;23;20449;-85
2021/12/14 00:42:36;;;;;;;30.35;17.58;;;;;;;;;;6211275;23;20346;-86
2021/12/14 00:45:03;;;;;;;23.42;17.42;;;;;;;;;;6185386;23;20013;-86
2021/12/14 00:47:29;;;;;;;21.00;16.27;;;;;;;;;;6185621;23;20017;-86
2021/12/14 00:49:55;;;;;;;24.55;16.63;;;;;;;;;;6210824;23;20075;-85
2021/12/14 00:52:22;;;;;;;22.90;17.45;;;;;;;;;;6185564;23;20051;-85
2021/12/14 00:54:48;;;;;;;24.35;17.08;;;;;;;;;;6210127;23;20055;-85
2021/12/14 00:57:14;;;;;;;24.15;16.75;;;;;;;;;;6185802;23;20012;-86
2021/12/14 00:59:40;;;;;;;23.42;16.17;;;;;;;;;;6185960;23;20108;-86
2021/12/14 01:02:08;;;;;;;22.02;16.30;;;;;;;;;;6185917;23;20095;-85
2021/12/14 01:04:41;;;;;;;26.33;16.95;;;;;;;;;;6210452;23;20016;-86
2021/12/14 01:07:09;;;;;;;23.10;16.45;;;;;;;;;;6210661;23;20328;-85
2021/12/14 01:09:37;;;;;;;25.30;17.75;;;;;;;;;;6211009;23;20461;-86
2021/12/14 01:12:10;;;;;;;24.33;16.88;;;;;;;;;;6211326;23;20497;-86
2021/12/14 01:14:47;;;;;;;24.02;16.70;;;;;;;;;;6210880;23;20083;-86
2021/12/14 01:17:26;;;;;;;26.80;17.13;;;;;;;;;;6186554;23;20022;-86
2021/12/14 01:19:57;;;;;;;24.20;17.58;;;;;;;;;;6211146;23;20315;-86
2021/12/14 01:25:03;;;;;;;25.77;17.63;;;;;;;;;;6211314;23;20047;-86
2021/12/14 01:27:53;;;;;;;24.85;17.77;;;;;;;;;;6211671;23;20099;-86
2021/12/14 01:30:22;;;;;;;24.35;17.23;;;;;;;;;;6199083;23;20012;-86
2021/12/14 01:32:53;;;;;;;23.75;17.45;;;;;;;;;;6210554;23;20028;-86
2021/12/14 01:35:23;;;;;;;26.58;18.60;;;;;;;;;;6185878;23;20496;-85
2021/12/14 01:38:01;;;;;;;25.05;19.65;;;;;;;;;;6210466;23;20414;-86
2021/12/14 01:43:13;;;;;;;27.70;19.67;;;;;;;;;;6211138;23;20017;-86
2021/12/14 01:45:39;;;;;;;25.52;18.90;;;;;;;;;;6210338;23;20477;-86
2021/12/14 01:48:05;;;;;;;25.15;18.52;;;;;;;;;;6211219;23;20066;-87
2021/12/14 01:50:34;;;;;;;26.38;19.30;;;;;;;;;;6185126;23;20087;-86
2021/12/14 01:53:00;;;;;;;27.80;19.00;;;;;;;;;;6210263;23;20357;-86
2021/12/14 01:55:28;;;;;;;26.45;19.88;;;;;;;;;;6210196;23;20023;-86
2021/12/14 01:57:55;;;;;;;27.98;19.20;;;;;;;;;;6210045;23;20390;-85
2021/12/14 02:00:33;;;;;;;29.85;20.48;;;;;;;;;;6210174;23;20017;-86
2021/12/14 02:02:59;;;;;;;29.40;20.42;;;;;;;;;;6210010;23;20028;-86
2021/12/14 02:05:27;;;;;;;30.35;20.83;;;;;;;;;;6210303;23;20383;-86
2021/12/14 02:07:54;;;;;;;30.33;20.15;;;;;;;;;;6184653;23;20019;-86
2021/12/14 02:10:24;;;;;;;29.70;20.55;;;;;;;;;;6209923;23;20013;-86
2021/12/14 02:12:50;;;;;;;31.50;21.48;;;;;;;;;;6210129;23;20353;-86
2021/12/14 02:15:19;;;;;;;29.33;21.60;;;;;;;;;;6210091;23;20013;-87
2021/12/14 02:17:45;;;;;;;28.48;20.25;;;;;;;;;;6210034;23;20017;-86
2021/12/14 02:20:13;;;;;;;31.17;21.55;;;;;;;;;;6210392;23;20024;-87
2021/12/14 02:22:39;;;;;;;29.98;20.63;;;;;;;;;;6209918;23;20027;-87
2021/12/14 02:25:06;;;;;;;29.65;20.27;;;;;;;;;;6184818;23;20426;-86
2021/12/14 02:27:36;;;;;;;29.63;20.98;;;;;;;;;;6209258;23;20397;-84
2021/12/14 02:30:06;;;;;;;27.48;19.38;;;;;;;;;;6208977;23;20044;-87
2021/12/14 02:32:32;;;;;;;30.17;22.23;;;;;;;;;;6210197;23;20048;-87
2021/12/14 02:35:03;;;;;;;30.90;20.88;;;;;;;;;;6183934;23;20020;-86
2021/12/14 02:37:55;;;;;;;30.23;21.63;;;;;;;;;;6208690;23;20405;-86
2021/12/14 02:40:53;;;;;;;30.17;21.63;;;;;;;;;;6205391;23;20027;-86
2021/12/14 02:43:19;;;;;;;33.03;21.63;;;;;;;;;;6209515;23;20099;-87
2021/12/14 02:45:45;;;;;;;30.90;21.77;;;;;;;;;;6209141;23;20346;-86
2021/12/14 02:48:11;;;;;;;30.52;21.30;;;;;;;;;;6208718;23;20009;-87
2021/12/14 02:50:38;;;;;;;33.40;22.45;;;;;;;;;;6209210;23;20009;-86
2021/12/14 02:53:05;;;;;;;34.58;22.52;;;;;;;;;;6184029;23;20017;-86
2021/12/14 02:55:31;;;;;;;29.60;21.20;;;;;;;;;;6209221;23;20020;-87
2021/12/14 02:57:59;;;;;;;33.40;23.27;;;;;;;;;;6209320;23;20023;-86
2021/12/14 03:00:27;;;;;;;32.47;22.27;;;;;;;;;;6208563;23;20028;-87
2021/12/14 03:02:53;;;;;;;31.90;22.40;;;;;;;;;;6208881;23;20258;-85
2021/12/14 03:05:21;;;;;;;31.90;22.80;;;;;;;;;;6208789;23;20115;-84
2021/12/14 03:07:50;;;;;;;31.85;21.17;;;;;;;;;;6209023;23;20046;-86
2021/12/14 03:12:53;;;;;;;34.80;23.52;;;;;;;;;;6208656;23;20052;-86
2021/12/14 03:15:25;;;;;;;30.50;21.92;;;;;;;;;;6208068;23;20028;-85
2021/12/14 03:17:54;;;;;;;31.58;22.85;;;;;;;;;;6208246;23;20458;-86
2021/12/14 03:20:23;;;;;;;35.63;22.60;;;;;;;;;;6183483;23;20476;-86
2021/12/14 03:22:57;;;;;;;32.05;22.35;;;;;;;;;;6208560;23;20016;-86
2021/12/14 03:25:24;;;;;;;33.60;22.90;;;;;;;;;;6208385;23;20023;-85
2021/12/14 03:27:51;;;;;;;33.90;24.33;;;;;;;;;;6208502;23;20091;-85
2021/12/14 03:30:22;;;;;;;34.38;24.38;;;;;;;;;;6208546;23;20039;-86
2021/12/14 03:32:48;;;;;;;34.08;24.45;;;;;;;;;;6208496;23;20020;-85
2021/12/14 03:35:17;;;;;;;35.88;23.92;;;;;;;;;;6210510;23;20012;-86
2021/12/14 03:37:43;;;;;;;35.15;24.23;;;;;;;;;;6185131;23;20017;-86
2021/12/14 03:40:10;;;;;;;33.50;25.08;;;;;;;;;;6209999;23;20028;-86
2021/12/14 03:42:38;;;;;;;34.75;24.10;;;;;;;;;;6209986;23;20273;-85
2021/12/14 03:45:09;;;;;;;37.53;25.13;;;;;;;;;;6210427;23;20434;-86
2021/12/14 03:47:48;;;;;;;38.88;25.48;;;;;;;;;;6185171;23;20013;-86
2021/12/14 03:50:19;;;;;;;36.90;25.05;;;;;;;;;;6210187;23;20058;-85
2021/12/14 03:52:45;;;;;;;38.95;25.85;;;;;;;;;;6209921;23;20036;-86
2021/12/14 03:55:17;;;;;;;38.25;25.35;;;;;;;;;;6210009;23;20052;-84
2021/12/14 03:57:43;;;;;;;36.45;25.55;;;;;;;;;;6210156;23;20012;-86
2021/12/14 04:00:12;;;;;;;39.15;25.55;;;;;;;;;;6210151;23;20016;-86
2021/12/14 04:02:38;;;;;;;38.13;25.35;;;;;;;;;;6210196;23;20040;-86
2021/12/14 04:05:10;;;;;;;40.80;27.60;;;;;;;;;;6209992;23;20550;-85
2021/12/14 04:07:38;;;;;;;39.70;26.25;;;;;;;;;;6210352;23;20016;-86
2021/12/14 04:10:06;;;;;;;38.70;26.50;;;;;;;;;;6209797;23;20020;-86
2021/12/14 04:12:32;;;;;;;37.75;26.17;;;;;;;;;;6184784;23;20017;-85
2021/12/14 04:14:58;;;;;;;37.95;26.05;;;;;;;;;;6184597;23;20020;-85
2021/12/14 04:17:28;;;;;;;40.90;26.25;;;;;;;;;;6210071;23;20304;-85
2021/12/14 04:19:55;;;;;;;40.05;26.65;;;;;;;;;;6209984;23;20370;-87
2021/12/14 04:22:23;;;;;;;41.10;27.08;;;;;;;;;;6209787;23;20013;-85
2021/12/14 04:24:50;;;;;;;40.33;26.52;;;;;;;;;;6209879;23;20019;-85
2021/12/14 04:27:19;;;;;;;41.45;26.58;;;;;;;;;;6209802;23;20063;-85
2021/12/14 04:29:45;;;;;;;40.35;27.38;;;;;;;;;;6209909;23;20013;-85
2021/12/14 04:32:12;;;;;;;41.78;28.63;;;;;;;;;;6184907;23;20036;-85
2021/12/14 04:34:38;;;;;;;40.88;27.15;;;;;;;;;;6209702;23;20024;-86
2021/12/14 04:37:04;;;;;;;42.88;27.33;;;;;;;;;;6209623;23;20081;-86
2021/12/14 04:53:27;;;;;;;43.05;27.35;;;;;;;;;;6209660;23;20021;-84
2021/12/14 04:55:55;;;;;;;44.83;28.10;;;;;;;;;;6209828;23;20036;-85
2021/12/14 04:58:26;;;;;;;43.97;28.02;;;;;;;;;;6209325;23;20119;-86
2021/12/14 05:00:52;;;;;;;43.80;28.15;;;;;;;;;;6209244;23;20135;-86
2021/12/14 05:03:31;;;;;;;43.17;28.63;;;;;;;;;;6209341;23;20016;-86
2021/12/14 05:06:10;;;;;;;43.20;28.58;;;;;;;;;;6209851;23;20071;-86
2021/12/14 05:11:07;;;;;;;41.88;27.25;;;;;;;;;;6209269;23;20017;-85
2021/12/14 05:13:38;;;;;;;44.60;29.50;;;;;;;;;;6209530;23;20017;-86
2021/12/14 05:16:05;;;;;;;41.08;27.55;;;;;;;;;;6209470;23;20482;-85
2021/12/14 05:18:31;;;;;;;41.10;27.52;;;;;;;;;;6183998;23;20087;-85
2021/12/14 05:20:58;;;;;;;41.97;29.33;;;;;;;;;;6209213;23;20074;-85
2021/12/14 05:23:27;;;;;;;40.58;26.63;;;;;;;;;;6208848;23;20016;-85
2021/12/14 05:25:53;;;;;;;45.58;29.73;;;;;;;;;;6208965;23;20024;-85
2021/12/14 05:28:20;;;;;;;45.75;30.15;;;;;;;;;;6209166;23;20012;-85
2021/12/14 05:30:48;;;;;;;44.47;28.67;;;;;;;;;;6183953;23;20008;-85
2021/12/14 05:33:16;;;;;;;44.03;28.73;;;;;;;;;;6208808;23;20023;-86
2021/12/14 05:35:43;;;;;;;48.22;29.98;;;;;;;;;;6208637;23;20020;-85
2021/12/14 05:38:15;;;;;;;47.50;30.08;;;;;;;;;;6209349;23;20461;-85
2021/12/14 05:40:56;;;;;;;46.75;30.83;;;;;;;;;;6209000;23;20191;-85
2021/12/14 05:43:31;;;;;;;52.03;33.03;;;;;;;;;;6208701;23;20023;-86
2021/12/14 05:45:58;;;;;;;51.03;31.38;;;;;;;;;;6208771;23;20518;-86
2021/12/14 05:48:27;;;;;;;51.47;31.33;;;;;;;;;;6183969;23;20649;-85
2021/12/14 05:50:55;;;;;;;50.15;31.33;;;;;;;;;;6183705;23;20012;-86
2021/12/14 05:53:24;;;;;;;46.00;29.55;;;;;;;;;;6183818;23;20457;-85
2021/12/14 05:55:50;;;;;;;47.80;29.70;;;;;;;;;;6208130;23;20021;-85
2021/12/14 05:58:18;;;;;;;48.13;30.77;;;;;;;;;;6208541;23;20454;-85
2021/12/14 06:00:46;;;;;;;46.63;30.20;;;;;;;;;;6208747;23;20082;-84
2021/12/14 06:03:16;;;;;;;47.10;31.00;;;;;;;;;;6208821;23;20017;-85
2021/12/14 06:05:42;;;;;;;44.75;28.80;;;;;;;;;;6208848;23;20035;-84
2021/12/14 06:08:08;;;;;;;51.33;30.67;;;;;;;;;;6208482;23;20485;-84
2021/12/14 06:10:34;;;;;;;48.60;31.80;;;;;;;;;;6208444;23;20012;-84
2021/12/14 06:13:00;;;;;;;45.70;29.17;;;;;;;;;;6208458;23;20489;-85
2021/12/14 06:15:28;;;;;;;46.78;31.30;;;;;;;;;;6208493;23;20016;-85
2021/12/14 06:17:54;;;;;;;47.47;30.92;;;;;;;;;;6208909;23;20016;-85
2021/12/14 06:20:25;;;;;;;49.65;31.83;;;;;;;;;;6208565;23;20027;-86
2021/12/14 06:22:52;;;;;;;48.28;31.65;;;;;;;;;;6208391;23;20020;-86
2021/12/14 06:25:20;;;;;;;51.65;32.97;;;;;;;;;;6208463;23;20380;-85
2021/12/14 06:27:47;;;;;;;56.10;32.53;;;;;;;;;;6207928;23;20031;-85
2021/12/14 06:30:18;;;;;;;53.35;32.35;;;;;;;;;;6208524;23;20040;-85
2021/12/14 06:32:53;;;;;;;53.38;32.03;;;;;;;;;;6208636;23;20358;-84
2021/12/14 06:35:24;;;;;;;52.40;32.10;;;;;;;;;;6208269;23;20020;-85
2021/12/14 06:40:29;;;;;;;51.45;33.20;;;;;;;;;;6207825;23;20028;-86
2021/12/14 06:42:55;;;;;;;51.35;32.58;;;;;;;;;;6182707;23;20062;-86
2021/12/14 06:45:22;;;;;;;50.50;32.03;;;;;;;;;;6208206;23;20088;-85
2021/12/14 06:47:50;;;;;;;56.13;33.22;;;;;;;;;;6207494;23;20031;-84
2021/12/14 06:50:18;;;;;;;52.78;33.10;;;;;;;;;;6208079;23;20013;-85
2021/12/14 06:52:44;;;;;;;58.67;34.65;;;;;;;;;;6208917;23;20048;-86
2021/12/14 06:55:21;;;;;;;56.00;32.92;;;;;;;;;;6208675;23;20012;-86
2021/12/14 06:57:47;;;;;;;52.08;33.38;;;;;;;;;;6209636;23;20120;-85
2021/12/14 07:00:13;;;;;;;57.65;35.70;;;;;;;;;;6183501;23;20013;-85
2021/12/14 07:02:44;;;;;;;53.80;33.42;;;;;;;;;;6207870;23;20025;-86
2021/12/14 07:05:17;;;;;;;56.30;34.80;;;;;;;;;;6208521;23;20067;-84
2021/12/14 07:07:43;;;;;;;57.78;36.03;;;;;;;;;;6207540;23;20013;-86
2021/12/14 07:10:09;;;;;;;57.22;35.72;;;;;;;;;;6208939;23;20016;-87
2021/12/14 07:12:36;;;;;;;59.88;36.97;;;;;;;;;;6209429;23;20028;-88
2021/12/14 07:15:09;;;;;;;58.83;35.25;;;;;;;;;;6209470;23;20532;-86
2021/12/14 07:17:43;;;;;;;61.58;37.85;;;;;;;;;;6210553;23;20389;-87
2021/12/14 07:20:12;;;;;;;63.95;37.78;;;;;;;;;;6210290;23;20335;-86
2021/12/14 07:22:38;;;;;;;61.33;36.25;;;;;;;;;;6185609;23;20019;-86
2021/12/14 07:25:21;;;;;;;61.00;36.75;;;;;;;;;;6209223;23;20008;-85
2021/12/14 07:27:48;;;;;;;57.70;35.90;;;;;;;;;;6183680;23;20443;-85
2021/12/14 07:30:23;;;;;;;63.65;38.70;;;;;;;;;;6209228;23;20034;-85
2021/12/14 07:32:54;;;;;;;66.55;40.05;;;;;;;;;;6184116;23;20369;-85
2021/12/14 07:35:26;;;;;;;68.97;38.78;;;;;;;;;;6209233;23;20044;-85
2021/12/14 07:37:53;;;;;;;71.72;41.20;;;;;;;;;;6208950;23;20338;-86
2021/12/14 07:40:19;;;;;;;75.32;43.63;;;;;;;;;;6210150;23;20047;-87
2021/12/14 07:42:45;;;;;;;75.65;42.85;;;;;;;;;;6209358;23;20021;-85
2021/12/14 07:45:11;;;;;;;78.60;43.83;;;;;;;;;;6209375;23;20021;-86
2021/12/14 07:47:37;;;;;;;77.97;44.20;;;;;;;;;;6183954;23;20013;-85
2021/12/14 07:50:03;;;;;;;82.43;43.97;;;;;;;;;;6184061;23;20446;-86
2021/12/14 07:52:36;;;;;;;80.38;45.38;;;;;;;;;;6208988;23;20020;-85
2021/12/14 07:55:05;;;;;;;81.00;44.25;;;;;;;;;;6208934;23;20028;-84
2021/12/14 07:57:32;;;;;;;75.07;43.92;;;;;;;;;;6209310;23;20024;-85
2021/12/14 08:00:14;;;;;;;75.80;45.20;;;;;;;;;;6209409;23;20020;-85
2021/12/14 08:02:42;;;;;;;79.68;43.92;;;;;;;;;;6209098;23;20024;-84
2021/12/14 08:05:20;;;;;;;81.53;44.55;;;;;;;;;;6209053;23;20016;-83
2021/12/14 08:07:48;;;;;;;84.85;43.95;;;;;;;;;;6208785;23;20044;-85
2021/12/14 08:10:16;;;;;;;82.55;45.58;;;;;;;;;;6208984;23;20012;-84
2021/12/14 08:12:48;;;;;;;83.80;44.50;;;;;;;;;;6183984;23;20310;-85
2021/12/14 08:15:17;;;;;;;80.50;44.38;;;;;;;;;;6209355;23;20354;-85
2021/12/14 08:17:44;;;;;;;85.03;45.05;;;;;;;;;;6209272;23;20024;-85
2021/12/14 08:20:12;;;;;;;77.97;43.28;;;;;;;;;;6183333;23;20016;-85
2021/12/14 08:22:40;;;;;;;83.10;43.55;;;;;;;;;;6208688;23;20039;-84
2021/12/14 08:25:08;;;;;;;79.93;42.42;;;;;;;;;;6183929;23;20016;-86
2021/12/14 08:27:34;;;;;;;85.47;45.45;;;;;;;;;;6208844;23;20267;-85
2021/12/14 08:30:05;;;;;;;84.65;46.42;;;;;;;;;;6183572;23;20009;-85
2021/12/14 08:32:33;;;;;;;83.65;43.90;;;;;;;;;;6209627;23;20020;-85
2021/12/14 08:35:01;;;;;;;83.90;44.58;;;;;;;;;;6210781;23;20043;-85
2021/12/14 08:37:30;;;;;;;86.40;44.90;;;;;;;;;;6211087;23;20021;-85
2021/12/14 08:40:02;;;;;;;87.75;46.03;;;;;;;;;;6211460;23;20023;-85
2021/12/14 08:42:38;;;;;;;88.78;46.90;;;;;;;;;;6186169;23;20335;-85
2021/12/14 08:45:24;;;;;;;89.40;44.58;;;;;;;;;;6211121;23;20019;-84
2021/12/14 08:47:51;;;;;;;89.00;45.38;;;;;;;;;;6211824;23;20012;-85
2021/12/14 08:50:17;;;;;;;99.25;49.53;;;;;;;;;;6210153;23;20370;-86
2021/12/14 08:52:43;;;;;;;87.10;47.08;;;;;;;;;;6208675;23;20017;-85
2021/12/14 08:55:11;;;;;;;90.03;46.58;;;;;;;;;;6183747;23;20044;-85
2021/12/14 08:57:38;;;;;;;95.43;48.78;;;;;;;;;;6208120;23;20469;-85
2021/12/14 09:00:12;;;;;;;95.03;47.83;;;;;;;;;;6182820;23;20035;-86
2021/12/14 09:02:38;;;;;;;100.78;49.17;;;;;;;;;;6208175;23;20131;-85
2021/12/14 09:05:08;;;;;;;90.95;45.72;;;;;;;;;;6208775;23;20451;-86
2021/12/14 09:07:34;;;;;;;95.32;48.30;;;;;;;;;;6184298;23;20016;-86
2021/12/14 09:10:01;;;;;;;97.40;48.00;;;;;;;;;;6208899;23;20044;-87
2021/12/14 09:12:32;;;;;;;92.05;46.88;;;;;;;;;;6183726;23;20013;-84
2021/12/14 09:15:01;;;;;;;90.18;47.95;;;;;;;;;;6211382;23;20013;-86
2021/12/14 09:17:27;;;;;;;90.75;45.28;;;;;;;;;;6184692;23;20023;-84
2021/12/14 09:19:59;;;;;;;88.68;45.63;;;;;;;;;;6184524;23;20024;-85
2021/12/14 09:22:27;;;;;;;82.97;44.88;;;;;;;;;;6209537;23;20035;-85
2021/12/14 09:24:54;;;;;;;86.53;45.97;;;;;;;;;;6209719;23;20027;-85
2021/12/14 09:27:22;;;;;;;88.03;44.25;;;;;;;;;;6208890;23;20016;-87
2021/12/14 09:29:49;;;;;;;84.80;46.05;;;;;;;;;;6209297;23;20023;-86
2021/12/14 09:32:24;;;;;;;86.80;45.00;;;;;;;;;;6208898;23;20322;-86
2021/12/14 09:34:50;;;;;;;79.53;44.75;;;;;;;;;;6208609;23;20016;-85
2021/12/14 09:37:17;;;;;;;83.90;45.75;;;;;;;;;;6182863;23;20102;-85
2021/12/14 09:39:46;;;;;;;82.22;46.58;;;;;;;;;;6208730;23;20017;-85
2021/12/14 09:42:15;;;;;;;80.97;45.20;;;;;;;;;;6209320;23;20027;-85
2021/12/14 09:44:41;;;;;;;85.15;45.33;;;;;;;;;;6208788;23;20009;-85
2021/12/14 09:47:12;;;;;;;85.13;45.92;;;;;;;;;;6208330;23;20016;-85
2021/12/14 09:49:39;;;;;;;79.95;46.90;;;;;;;;;;6208421;23;20008;-84
2021/12/14 09:52:08;;;;;;;77.55;43.55;;;;;;;;;;6207750;23;20327;-84
2021/12/14 09:54:35;;;;;;;81.03;44.55;;;;;;;;;;6208018;23;20438;-86
2021/12/14 09:57:13;;;;;;;71.25;43.63;;;;;;;;;;6208561;23;20040;-84
2021/12/14 09:59:40;;;;;;;72.05;42.30;;;;;;;;;;6208972;23;20404;-86
2021/12/14 10:02:28;;;;;;;78.60;45.10;;;;;;;;;;6207991;23;20012;-85
2021/12/14 10:04:56;;;;;;;82.72;46.65;;;;;;;;;;6207645;23;20517;-85
2021/12/14 10:07:24;;;;;;;79.07;46.53;;;;;;;;;;6181332;23;20016;-86
2021/12/14 10:09:51;;;;;;;76.90;43.50;;;;;;;;;;6208589;23;20019;-85
2021/12/14 10:14:48;;;;;;;73.93;43.85;;;;;;;;;;6208336;23;20052;-86
2021/12/14 10:17:15;;;;;;;76.80;43.97;;;;;;;;;;6183049;23;20021;-86
2021/12/14 10:19:42;;;;;;;77.05;43.90;;;;;;;;;;6183658;23;20027;-85
2021/12/14 10:22:12;;;;;;;78.88;43.70;;;;;;;;;;6208543;23;20362;-86
2021/12/14 10:24:38;;;;;;;72.05;43.20;;;;;;;;;;6209777;23;20016;-85
2021/12/14 10:27:07;;;;;;;74.72;43.05;;;;;;;;;;6208428;23;20013;-85
2021/12/14 10:29:34;;;;;;;73.18;41.40;;;;;;;;;;6183813;23;20008;-85
2021/12/14 10:32:06;;;;;;;75.00;43.05;;;;;;;;;;6182968;23;20024;-85
2021/12/14 10:34:40;;;;;;;76.40;41.53;;;;;;;;;;6208062;23;20031;-85
2021/12/14 10:37:14;;;;;;;77.55;43.90;;;;;;;;;;6182448;23;20361;-86
2021/12/14 10:42:40;;;;;;;71.72;41.90;;;;;;;;;;6208193;23;20016;-85
2021/12/14 10:45:12;;;;;;;73.20;41.05;;;;;;;;;;6207343;23;20450;-86
2021/12/14 10:47:39;;;;;;;74.07;43.60;;;;;;;;;;6208196;23;20078;-86
2021/12/14 10:50:08;;;;;;;74.88;42.50;;;;;;;;;;6207778;23;20390;-85
2021/12/14 10:52:40;;;;;;;74.13;43.55;;;;;;;;;;6207923;23;20722;-84
2021/12/14 10:55:18;;;;;;;67.53;39.58;;;;;;;;;;6208261;23;20358;-86
2021/12/14 10:57:44;;;;;;;71.90;40.20;;;;;;;;;;6208366;23;20023;-86
2021/12/14 11:00:15;;;;;;;66.20;39.92;;;;;;;;;;6207487;23;20016;-87
2021/12/14 11:02:42;;;;;;;70.80;41.25;;;;;;;;;;6208072;23;20446;-85
2021/12/14 11:05:16;;;;;;;68.03;39.08;;;;;;;;;;6208497;23;20071;-86
2021/12/14 11:07:45;;;;;;;67.78;39.00;;;;;;;;;;6208665;23;20012;-85
2021/12/14 11:10:24;;;;;;;63.28;39.22;;;;;;;;;;6208675;23;20013;-85
2021/12/14 11:12:53;;;;;;;66.25;38.40;;;;;;;;;;6183324;23;20582;-85
2021/12/14 11:15:21;;;;;;;67.25;39.45;;;;;;;;;;6208529;23;20473;-86
2021/12/14 11:20:35;;;;;;;72.50;40.40;;;;;;;;;;6208404;23;20017;-85
2021/12/14 11:23:25;;;;;;;66.43;38.70;;;;;;;;;;6207812;23;20016;-85
2021/12/14 11:26:03;;;;;;;71.95;39.38;;;;;;;;;;6196009;23;20094;-85
2021/12/14 11:28:33;;;;;;;59.00;37.25;;;;;;;;;;6182862;23;20071;-85
2021/12/14 11:31:03;;;;;;;65.82;37.42;;;;;;;;;;6207989;23;20589;-85
2021/12/14 11:33:31;;;;;;;69.55;38.70;;;;;;;;;;6208101;23;20017;-86
2021/12/14 11:36:06;;;;;;;70.95;38.78;;;;;;;;;;6182675;23;20381;-85
2021/12/14 11:38:32;;;;;;;75.05;40.15;;;;;;;;;;6208061;23;20078;-86
2021/12/14 11:41:00;;;;;;;70.07;38.33;;;;;;;;;;6207369;23;20016;-86
2021/12/14 11:43:28;;;;;;;62.55;35.47;;;;;;;;;;6207575;23;20075;-84
2021/12/14 11:45:54;;;;;;;66.57;38.25;;;;;;;;;;6207717;23;20342;-86
2021/12/14 11:48:35;;;;;;;65.72;37.58;;;;;;;;;;6207617;23;20397;-86
2021/12/14 11:51:03;;;;;;;64.10;37.42;;;;;;;;;;6182558;23;20012;-85
2021/12/14 11:53:29;;;;;;;69.97;38.47;;;;;;;;;;6208776;23;20032;-87
2021/12/14 11:56:00;;;;;;;72.22;37.90;;;;;;;;;;6209231;23;20023;-84
2021/12/14 11:58:37;;;;;;;66.22;36.53;;;;;;;;;;6209366;23;20035;-86
2021/12/14 12:01:10;;;;;;;64.32;35.35;;;;;;;;;;6184376;23;20477;-86
2021/12/14 12:03:42;;;;;;;66.07;35.67;;;;;;;;;;6184752;23;20016;-85
2021/12/14 12:06:25;;;;;;;62.95;35.90;;;;;;;;;;6184640;23;20019;-86
2021/12/14 12:11:43;;;;;;;63.75;36.00;;;;;;;;;;6209160;23;20017;-84
2021/12/14 12:14:17;;;;;;;65.53;34.83;;;;;;;;;;6209880;23;20012;-85
2021/12/14 12:16:43;;;;;;;67.10;36.00;;;;;;;;;;6210061;23;20013;-86
2021/12/14 12:19:13;;;;;;;66.43;37.13;;;;;;;;;;6209906;23;20016;-86
2021/12/14 12:21:39;;;;;;;62.97;35.38;;;;;;;;;;6210001;23;20009;-85
2021/12/14 12:24:05;;;;;;;67.97;36.42;;;;;;;;;;6209209;23;20013;-86
2021/12/14 12:26:34;;;;;;;71.55;36.42;;;;;;;;;;6184500;23;20297;-84
2021/12/14 12:29:03;;;;;;;62.58;33.40;;;;;;;;;;6209244;23;20083;-85
2021/12/14 12:31:33;;;;;;;64.72;34.88;;;;;;;;;;6185384;23;20257;-85
2021/12/14 12:34:00;;;;;;;65.32;36.47;;;;;;;;;;6210807;23;20087;-86
2021/12/14 12:36:29;;;;;;;66.38;35.65;;;;;;;;;;6212532;23;20346;-86
2021/12/14 12:39:06;;;;;;;67.22;35.05;;;;;;;;;;6211149;23;20089;-86
2021/12/14 12:41:45;;;;;;;71.15;36.33;;;;;;;;;;6208463;23;20013;-85
2021/12/14 12:44:11;;;;;;;71.45;36.03;;;;;;;;;;6183461;23;20009;-86
2021/12/14 12:46:42;;;;;;;66.10;34.42;;;;;;;;;;6209729;23;20087;-85
2021/12/14 12:49:12;;;;;;;71.43;36.13;;;;;;;;;;6209663;23;20012;-85
2021/12/14 12:51:43;;;;;;;65.63;35.75;;;;;;;;;;6208749;23;20390;-86
2021/12/14 12:54:11;;;;;;;74.03;37.00;;;;;;;;;;6208779;23;20453;-86
2021/12/14 12:56:40;;;;;;;77.00;36.00;;;;;;;;;;6209402;23;20013;-85
2021/12/14 12:59:06;;;;;;;66.10;33.70;;;;;;;;;;6208962;23;20088;-85
2021/12/14 13:01:32;;;;;;;77.90;37.97;;;;;;;;;;6184740;23;20473;-86
2021/12/14 13:03:58;;;;;;;72.85;36.42;;;;;;;;;;6209891;23;20040;-86
2021/12/14 13:06:25;;;;;;;69.25;35.33;;;;;;;;;;6209508;23;20035;-85
2021/12/14 13:08:52;;;;;;;71.80;35.10;;;;;;;;;;6208508;23;20080;-87
2021/12/14 13:11:23;;;;;;;72.03;34.15;;;;;;;;;;6208008;23;20382;-85
2021/12/14 13:13:55;;;;;;;69.38;34.25;;;;;;;;;;6208168;23;20477;-84
2021/12/14 13:16:26;;;;;;;65.57;33.15;;;;;;;;;;6208425;23;20016;-85
2021/12/14 13:18:55;;;;;;;61.25;32.42;;;;;;;;;;6209643;23;20393;-87
2021/12/14 13:21:23;;;;;;;68.72;33.92;;;;;;;;;;6209148;23;20458;-87
2021/12/14 13:23:53;;;;;;;67.97;32.85;;;;;;;;;;6184378;23;20027;-85
2021/12/14 13:26:19;;;;;;;65.30;33.22;;;;;;;;;;6208655;23;20502;-85
2021/12/14 13:28:45;;;;;;;66.00;33.05;;;;;;;;;;6208769;23;20013;-85
2021/12/14 13:31:22;;;;;;;59.63;30.30;;;;;;;;;;6209134;23;20017;-86
2021/12/14 13:33:48;;;;;;;59.95;30.88;;;;;;;;;;6183623;23;20386;-85
2021/12/14 13:36:14;;;;;;;60.35;31.08;;;;;;;;;;6183691;23;20080;-85
2021/12/14 13:38:40;;;;;;;58.75;30.77;;;;;;;;;;6208548;23;20024;-84
2021/12/14 13:41:15;;;;;;;61.10;30.48;;;;;;;;;;6208212;23;20020;-85
2021/12/14 13:43:41;;;;;;;59.72;30.48;;;;;;;;;;6208347;23;20044;-84
2021/12/14 13:46:08;;;;;;;52.95;30.30;;;;;;;;;;6208144;23;20083;-84
2021/12/14 13:48:35;;;;;;;55.38;28.58;;;;;;;;;;6208438;23;20360;-85
2021/12/14 13:51:05;;;;;;;55.15;29.92;;;;;;;;;;6208356;23;20012;-84
2021/12/14 13:53:31;;;;;;;65.22;32.13;;;;;;;;;;6208208;23;20044;-84
2021/12/14 13:55:59;;;;;;;51.50;27.90;;;;;;;;;;6183592;23;20067;-84
2021/12/14 13:58:26;;;;;;;57.58;28.40;;;;;;;;;;6208560;23;20052;-85
2021/12/14 14:00:54;;;;;;;55.28;30.20;;;;;;;;;;6208696;23;20017;-85
2021/12/14 14:03:31;;;;;;;58.40;29.58;;;;;;;;;;6182813;23;20043;-85
2021/12/14 14:05:58;;;;;;;51.70;29.35;;;;;;;;;;6209554;23;20016;-86
2021/12/14 14:08:26;;;;;;;53.85;29.55;;;;;;;;;;6208651;23;20405;-88
2021/12/14 14:10:53;;;;;;;55.53;30.25;;;;;;;;;;6208554;23;20079;-86
2021/12/14 14:13:24;;;;;;;56.97;29.60;;;;;;;;;;6207387;23;20024;-86
2021/12/14 14:15:51;;;;;;;56.25;29.88;;;;;;;;;;6207579;23;20016;-85
2021/12/14 14:18:17;;;;;;;52.65;29.83;;;;;;;;;;6207139;23;20017;-86
2021/12/14 14:20:51;;;;;;;56.97;30.10;;;;;;;;;;6182603;23;20389;-86
2021/12/14 14:23:22;;;;;;;57.83;29.67;;;;;;;;;;6211328;23;20016;-86
2021/12/14 14:25:57;;;;;;;60.05;29.73;;;;;;;;;;6211662;23;20055;-87
2021/12/14 14:28:24;;;;;;;;;;;;;;;;;;6186587;23;20012;-86
2021/12/14 14:30:51;;;;;;;55.20;28.73;;;;;;;;;;6208397;23;20257;-87
2021/12/14 14:33:23;;;;;;;62.53;31.58;;;;;;;;;;6207980;23;20416;-86
2021/12/14 14:35:49;;;;;;;58.47;29.27;;;;;;;;;;6208035;23;20366;-86
2021/12/14 14:38:34;;;;;;;65.63;32.05;;;;;;;;;;6183116;23;20031;-86
2021/12/14 14:41:04;;;;;;;57.95;30.67;;;;;;;;;;6208179;23;20082;-86
2021/12/14 14:43:49;;;;;;;67.65;31.38;;;;;;;;;;6207659;23;20020;-86
2021/12/14 14:46:14;;;;;;;58.42;29.58;;;;;;;;;;6207962;23;20012;-86
2021/12/14 14:48:40;;;;;;;63.00;31.25;;;;;;;;;;6207968;23;20325;-86
2021/12/14 14:51:06;;;;;;;56.25;29.58;;;;;;;;;;6207965;23;20017;-86
2021/12/14 14:53:36;;;;;;;59.03;32.03;;;;;;;;;;6208000;23;20535;-86
2021/12/14 14:56:02;;;;;;;76.45;35.50;;;;;;;;;;6208176;23;20466;-85
2021/12/14 14:58:36;;;;;;;64.65;33.88;;;;;;;;;;6207760;23;20047;-85
2021/12/14 15:01:22;;;;;;;70.82;33.50;;;;;;;;;;6182924;23;20102;-85
2021/12/14 15:03:51;;;;;;;70.88;33.80;;;;;;;;;;6207777;23;20016;-85
2021/12/14 15:06:21;;;;;;;77.57;36.40;;;;;;;;;;6182721;23;20012;-84
2021/12/14 15:08:51;;;;;;;63.25;33.10;;;;;;;;;;6182824;23;20012;-84